Time;durP1;ratioP1;P1;durP2;ratioP2;P2;SDS_P1;SDS_P2;PMS_P1;PMS_P2;Temp;Humidity;BMP_temperature;BMP_pressure;BME280_temperature;BME280_humidity;BME280_pressure;Samples;Min_cycle;Max_cycle;Signal;HPM_P1;HPM_P2
2023/09/19 00:01:00;;;;;;;0.60;0.60;;;18.80;99.90;;;19.23;89.56;100104.22;4985046;28;20626;-67
2023/09/19 00:03:28;;;;;;;0.70;0.70;;;18.80;99.90;;;19.24;89.58;100100.59;4982481;28;20737;-66
2023/09/19 00:05:57;;;;;;;0.60;0.60;;;18.80;99.90;;;19.24;89.38;100099.78;4984401;28;20658;-67
2023/09/19 00:08:24;;;;;;;0.67;0.67;;;18.80;99.90;;;19.25;89.40;100098.78;4989242;28;21055;-66
2023/09/19 00:10:53;;;;;;;0.70;0.70;;;18.90;99.90;;;19.26;89.40;100109.16;4977206;28;20658;-65
2023/09/19 00:13:20;;;;;;;0.63;0.63;;;18.90;99.90;;;19.27;89.43;100117.94;4990083;28;20831;-67
2023/09/19 00:15:48;;;;;;;0.70;0.70;;;18.90;99.90;;;19.26;89.49;100121.56;4991490;28;20662;-65
2023/09/19 00:18:20;;;;;;;0.70;0.70;;;18.90;99.90;;;19.21;89.26;100123.91;4990046;28;20619;-65
2023/09/19 00:20:49;;;;;;;0.60;0.60;;;18.80;99.90;;;19.21;89.39;100130.03;4990965;28;20652;-68
2023/09/19 00:23:17;;;;;;;0.80;0.80;;;18.80;99.90;;;19.25;89.92;100130.53;4991593;28;21281;-65
2023/09/19 00:25:45;;;;;;;0.60;0.60;;;18.80;99.90;;;19.24;89.40;100124.41;4984803;28;20733;-68
2023/09/19 00:28:12;;;;;;;0.80;0.80;;;18.80;99.90;;;19.22;89.31;100123.75;4981883;28;20642;-68
2023/09/19 00:30:42;;;;;;;2.00;0.70;;;18.90;99.90;;;19.20;89.46;100122.28;4991343;28;20630;-65
2023/09/19 00:33:11;;;;;;;0.63;0.63;;;18.80;99.90;;;19.18;89.45;100124.28;4983506;28;21581;-65
2023/09/19 00:35:38;;;;;;;0.60;0.60;;;18.80;99.90;;;19.19;89.54;100125.91;4992095;28;20653;-68
2023/09/19 00:38:06;;;;;;;0.67;0.67;;;18.80;99.90;;;19.20;89.66;100127.56;4990550;28;20653;-65
2023/09/19 00:40:35;;;;;;;0.70;0.70;;;18.80;99.90;;;19.20;89.79;100132.88;4992442;28;20627;-67
2023/09/19 00:43:02;;;;;;;0.90;0.90;;;18.80;99.90;;;19.18;89.63;100129.56;4990999;28;20634;-65
2023/09/19 00:45:29;;;;;;;0.80;0.80;;;18.80;99.90;;;19.20;89.38;100132.88;4979367;28;20666;-65
2023/09/19 00:47:57;;;;;;;0.57;0.57;;;18.80;99.90;;;19.18;89.76;100134.88;4978577;28;20650;-69
2023/09/19 00:50:27;;;;;;;1.23;0.70;;;18.80;99.90;;;19.19;89.54;100149.72;4991114;28;20674;-66
2023/09/19 00:52:58;;;;;;;0.70;0.70;;;18.70;99.90;;;19.21;89.63;100143.25;4990982;28;20720;-65
2023/09/19 00:55:26;;;;;;;0.60;0.60;;;18.80;99.90;;;19.25;89.44;100146.38;4985424;28;20669;-66
2023/09/19 00:57:55;;;;;;;0.60;0.60;;;18.80;99.90;;;19.27;89.44;100150.47;4968219;28;20623;-67
2023/09/19 01:00:23;;;;;;;0.60;0.60;;;18.80;99.90;;;19.30;89.18;100146.66;4985454;28;20681;-65
2023/09/19 01:02:50;;;;;;;0.60;0.60;;;18.90;99.90;;;19.31;88.76;100149.13;4984197;28;20630;-66
2023/09/19 01:05:18;;;;;;;0.70;0.70;;;18.90;99.90;;;19.33;88.22;100147.16;4971754;28;20651;-67
2023/09/19 01:07:46;;;;;;;0.77;0.77;;;18.90;99.90;;;19.32;88.39;100149.94;4981621;28;20818;-67
2023/09/19 01:10:16;;;;;;;0.60;0.60;;;18.90;99.90;;;19.32;88.21;100145.50;4989518;28;21228;-68
2023/09/19 01:13:31;;;;;;;1.53;0.80;;;18.90;99.90;;;19.34;88.53;100155.91;4998096;28;21244;-66
2023/09/19 01:16:22;;;;;;;0.63;0.63;;;18.90;99.90;;;19.34;88.30;100155.91;4971668;28;20654;-65
2023/09/19 01:19:19;;;;;;;0.63;0.63;;;18.90;99.90;;;19.36;88.09;100156.56;4987423;28;20696;-66
2023/09/19 01:22:08;;;;;;;0.70;0.70;;;18.90;99.90;;;19.40;87.82;100163.13;4990809;28;20628;-65
2023/09/19 01:25:32;;;;;;;0.60;0.60;;;19.00;99.90;;;19.44;87.58;100167.09;4981500;28;21212;-65
2023/09/19 01:28:30;;;;;;;0.90;0.90;;;19.00;99.90;;;19.47;87.46;100165.88;4934209;29;20625;-68
2023/09/19 01:31:00;;;;;;;0.60;0.53;;;19.00;99.90;;;19.49;87.00;100163.88;4987035;28;20725;-68
2023/09/19 01:33:27;;;;;;;0.80;0.80;;;19.00;99.90;;;19.52;86.87;100167.03;4988915;28;20670;-64
2023/09/19 01:35:57;;;;;;;0.60;0.60;;;19.10;99.90;;;19.55;86.22;100171.13;4991184;28;20646;-65
2023/09/19 01:38:24;;;;;;;1.00;1.00;;;19.10;99.90;;;19.55;86.62;100174.59;4989722;28;20692;-65
2023/09/19 01:41:04;;;;;;;2.30;0.80;;;19.10;99.90;;;19.54;86.93;100172.94;4991516;28;20619;-66
2023/09/19 01:43:42;;;;;;;2.10;0.60;;;19.10;99.90;;;19.60;86.33;100182.81;4982120;28;20681;-66
2023/09/19 01:46:21;;;;;;;0.70;0.70;;;19.10;99.90;;;19.62;86.48;100177.34;4987663;28;20658;-67
2023/09/19 01:49:03;;;;;;;1.00;0.90;;;19.20;99.90;;;19.63;86.02;100181.66;4968559;28;20678;-64
2023/09/19 01:51:38;;;;;;;0.60;0.60;;;19.20;99.90;;;19.65;86.73;100185.75;4980996;28;20690;-65
2023/09/19 01:54:12;;;;;;;0.70;0.70;;;19.20;99.90;;;19.64;86.14;100184.09;4985636;28;20744;-64
2023/09/19 01:57:24;;;;;;;0.67;0.67;;;19.20;99.90;;;19.65;86.46;100195.53;4982320;28;20646;-64
2023/09/19 02:00:06;;;;;;;0.70;0.70;;;19.20;99.90;;;19.65;86.23;100201.66;4960658;28;20653;-64
2023/09/19 02:02:40;;;;;;;1.40;0.80;;;19.20;99.90;;;19.61;86.36;100199.53;4978375;28;20631;-64
2023/09/19 02:05:07;;;;;;;0.87;0.87;;;19.20;99.90;;;19.58;86.62;100200.69;4978082;28;21033;-64
2023/09/19 02:07:37;;;;;;;0.80;0.80;;;19.10;99.90;;;19.57;86.90;100206.19;5005270;28;21195;-64
2023/09/19 02:10:09;;;;;;;0.50;0.50;;;19.10;99.90;;;19.58;87.55;100216.56;4990871;28;20629;-65
2023/09/19 02:12:37;;;;;;;1.93;0.70;;;19.10;99.90;;;19.58;86.97;100216.56;4991247;28;20666;-65
2023/09/19 02:15:07;;;;;;;0.90;0.90;;;19.10;99.90;;;19.57;87.16;100212.28;4994328;28;20738;-67
2023/09/19 02:17:34;;;;;;;0.70;0.70;;;19.10;99.90;;;19.60;87.07;100214.56;4992916;28;20685;-65
2023/09/19 02:20:03;;;;;;;1.47;0.80;;;19.20;99.90;;;19.63;86.71;100218.69;4985854;28;20630;-65
2023/09/19 02:22:30;;;;;;;0.90;0.90;;;19.20;99.90;;;19.65;86.74;100229.94;4984531;28;20657;-67
2023/09/19 02:25:00;;;;;;;0.70;0.70;;;19.20;99.90;;;19.69;86.98;100226.75;4983924;28;20669;-65
2023/09/19 02:27:27;;;;;;;1.47;1.37;;;19.20;99.90;;;19.70;86.43;100230.22;4989109;28;20658;-66
2023/09/19 02:29:54;;;;;;;0.60;0.60;;;19.30;99.90;;;19.69;86.65;100228.56;4984190;28;20650;-66
2023/09/19 02:32:21;;;;;;;0.70;0.70;;;19.20;99.90;;;19.70;86.05;100236.31;4993213;28;20701;-64
2023/09/19 02:34:48;;;;;;;0.73;0.73;;;19.30;99.90;;;19.68;86.16;100235.69;4993634;28;20746;-66
2023/09/19 02:37:16;;;;;;;0.80;0.80;;;19.30;99.90;;;19.70;85.77;100236.31;4993792;28;20658;-64
2023/09/19 02:39:43;;;;;;;0.70;0.70;;;19.30;99.90;;;19.70;85.89;100243.47;4992928;28;20645;-64
2023/09/19 02:42:10;;;;;;;0.67;0.67;;;19.30;99.90;;;19.67;85.85;100239.34;4992472;28;20628;-68
2023/09/19 02:44:38;;;;;;;0.90;0.90;;;19.30;99.90;;;19.64;85.70;100239.69;4982390;28;20742;-66
2023/09/19 02:47:05;;;;;;;0.80;0.80;;;19.20;99.90;;;19.60;85.83;100245.50;4983581;28;20648;-65
2023/09/19 02:49:32;;;;;;;1.10;0.97;;;19.20;99.90;;;19.58;85.56;100248.34;4980923;28;21100;-64
2023/09/19 02:51:59;;;;;;;0.77;0.77;;;19.20;99.90;;;19.56;85.73;100252.97;4981826;28;20622;-69
2023/09/19 02:54:26;;;;;;;1.13;1.00;;;19.10;99.90;;;19.56;85.63;100246.88;4983128;28;20678;-68
2023/09/19 02:56:53;;;;;;;0.90;0.90;;;19.10;99.90;;;19.52;86.08;100249.03;4983121;28;20623;-65
2023/09/19 02:59:20;;;;;;;0.83;0.83;;;19.10;99.90;;;19.53;86.03;100255.97;4980951;28;20623;-68
2023/09/19 03:01:48;;;;;;;1.10;1.10;;;19.10;99.90;;;19.51;85.93;100244.75;4990698;28;20669;-65
2023/09/19 03:04:19;;;;;;;5.70;1.17;;;19.10;99.90;;;19.47;85.96;100248.75;4972730;28;21245;-66
2023/09/19 03:06:51;;;;;;;1.10;1.00;;;19.00;99.90;;;19.46;85.91;100252.41;4979107;28;20718;-67
2023/09/19 03:09:19;;;;;;;1.07;1.07;;;19.00;99.90;;;19.43;86.29;100260.69;4981692;28;20689;-65
2023/09/19 03:11:47;;;;;;;0.80;0.80;;;19.00;99.90;;;19.39;85.94;100255.91;4993967;28;20713;-67
2023/09/19 03:14:15;;;;;;;0.90;0.90;;;19.00;99.90;;;19.31;86.15;100256.78;4990293;28;21265;-66
2023/09/19 03:16:44;;;;;;;1.57;1.20;;;18.90;99.90;;;19.30;86.06;100255.13;4974908;28;21059;-65
2023/09/19 03:19:11;;;;;;;1.43;1.20;;;18.90;99.90;;;19.29;86.06;100261.41;4982082;28;20639;-66
2023/09/19 03:21:38;;;;;;;0.93;0.93;;;18.90;99.90;;;19.23;85.21;100262.91;4973157;28;20627;-65
2023/09/19 03:24:06;;;;;;;1.23;1.13;;;18.90;99.90;;;19.21;85.42;100261.44;4982393;28;20660;-66
2023/09/19 03:26:33;;;;;;;1.50;1.40;;;18.80;99.90;;;19.19;85.72;100268.72;4989044;28;20630;-66
2023/09/19 03:29:06;;;;;;;1.50;1.50;;;18.80;99.90;;;19.21;85.58;100272.03;4976291;28;20659;-66
2023/09/19 03:31:33;;;;;;;1.30;1.23;;;18.80;99.90;;;19.20;84.47;100273.88;4991194;28;20646;-67
2023/09/19 03:34:00;;;;;;;1.57;1.47;;;18.80;99.90;;;19.19;84.16;100266.91;4976609;28;20698;-65
2023/09/19 03:36:29;;;;;;;1.40;1.30;;;18.80;99.90;;;19.18;83.97;100283.78;4984124;28;21229;-66
2023/09/19 03:38:56;;;;;;;1.90;1.80;;;18.80;99.90;;;19.18;83.40;100280.31;4992221;28;20630;-65
2023/09/19 03:41:23;;;;;;;1.40;1.30;;;18.80;99.90;;;19.18;83.03;100283.78;4983589;28;20691;-68
2023/09/19 03:43:50;;;;;;;1.40;1.40;;;18.80;99.90;;;19.17;82.35;100284.78;4981187;28;20619;-64
2023/09/19 03:46:17;;;;;;;1.70;1.60;;;18.80;99.90;;;19.15;81.85;100286.78;4988655;28;20650;-67
2023/09/19 03:48:44;;;;;;;1.30;1.30;;;18.70;99.90;;;19.12;81.75;100283.66;4983868;28;20746;-65
2023/09/19 03:51:11;;;;;;;1.30;1.30;;;18.80;99.90;;;19.10;81.71;100283.81;4974810;28;20719;-68
2023/09/19 03:53:38;;;;;;;2.17;2.07;;;18.70;99.90;;;19.09;81.97;100286.63;4988816;28;20758;-65
2023/09/19 03:56:05;;;;;;;1.83;1.73;;;18.70;99.90;;;19.04;81.29;100289.81;4991567;28;20682;-67
2023/09/19 03:58:34;;;;;;;1.37;1.37;;;18.70;99.90;;;19.02;81.20;100291.78;4972232;28;21192;-65
2023/09/19 04:01:01;;;;;;;1.93;1.83;;;18.60;99.90;;;19.01;80.89;100286.69;4977513;28;20997;-67
2023/09/19 04:03:35;;;;;;;1.70;1.60;;;18.60;99.90;;;19.01;81.02;100289.34;4992074;28;20626;-67
2023/09/19 04:06:02;;;;;;;1.53;1.43;;;18.60;99.90;;;18.99;80.77;100294.81;4990669;28;20668;-66
2023/09/19 04:08:29;;;;;;;2.20;2.07;;;18.60;99.90;;;18.99;80.58;100293.97;4972393;28;21159;-68
2023/09/19 04:10:56;;;;;;;2.20;1.67;;;18.60;99.90;;;18.99;80.13;100304.53;4987540;28;20642;-66
2023/09/19 04:13:24;;;;;;;1.70;1.70;;;18.60;99.90;;;18.99;80.33;100300.09;4980431;28;20699;-69
2023/09/19 04:15:50;;;;;;;1.80;1.70;;;18.60;99.90;;;18.99;79.97;100300.09;4971966;28;20736;-65
2023/09/19 04:18:17;;;;;;;1.67;1.57;;;18.60;99.90;;;18.97;79.03;100298.59;4981921;28;20638;-68
2023/09/19 04:20:51;;;;;;;1.77;1.67;;;18.50;99.90;;;18.94;79.23;100297.13;4991321;28;20643;-65
2023/09/19 04:23:21;;;;;;;3.83;1.70;;;18.50;99.90;;;18.94;78.72;100297.13;4973155;28;20627;-67
2023/09/19 04:25:48;;;;;;;1.53;1.43;;;18.50;99.90;;;18.93;78.27;100305.25;4984221;28;21223;-66
2023/09/19 04:28:15;;;;;;;1.67;1.57;;;18.50;99.90;;;18.92;77.74;100308.88;4991468;28;21015;-67
2023/09/19 04:30:43;;;;;;;1.20;1.20;;;18.50;99.90;;;18.91;77.63;100315.16;4982854;28;20713;-65
2023/09/19 04:33:10;;;;;;;1.80;1.70;;;18.50;99.90;;;18.90;77.54;100316.16;4987864;28;20655;-68
2023/09/19 04:35:38;;;;;;;2.47;1.30;;;18.50;99.90;;;18.85;77.46;100318.47;4992025;28;20665;-66
2023/09/19 04:38:06;;;;;;;1.60;1.50;;;18.50;99.90;;;18.81;77.69;100318.00;4990351;28;20630;-65
2023/09/19 04:40:34;;;;;;;1.57;1.50;;;18.40;99.90;;;18.79;78.54;100319.16;4979334;28;21180;-66
2023/09/19 04:43:01;;;;;;;1.60;1.50;;;18.40;99.90;;;18.76;78.07;100327.44;4979527;28;20720;-67
2023/09/19 04:45:29;;;;;;;1.13;1.13;;;18.40;99.90;;;18.75;78.13;100328.41;4977817;28;20666;-66
2023/09/19 04:47:56;;;;;;;1.20;1.20;;;18.40;99.90;;;18.73;77.40;100339.16;4980854;28;20642;-70
2023/09/19 04:50:27;;;;;;;1.47;1.37;;;18.30;99.90;;;18.74;78.06;100337.34;4978906;28;20638;-65
2023/09/19 04:52:54;;;;;;;1.37;1.33;;;18.40;99.90;;;18.76;78.44;100340.66;4980354;28;20746;-66
2023/09/19 04:55:21;;;;;;;1.47;1.37;;;18.40;99.90;;;18.74;77.47;100350.56;4976847;23;20693;-66
2023/09/19 04:57:50;;;;;;;1.30;1.20;;;18.40;99.90;;;18.74;77.39;100363.78;4941312;28;20640;-65
2023/09/19 05:00:23;;;;;;;1.33;1.33;;;18.40;99.90;;;18.72;77.16;100349.91;4946759;28;20744;-65
2023/09/19 05:02:51;;;;;;;1.70;1.60;;;18.40;99.90;;;18.72;77.06;100358.66;4944463;28;21531;-66
2023/09/19 05:05:19;;;;;;;1.07;1.07;;;18.30;99.90;;;18.72;76.53;100365.78;4950692;28;20703;-66
2023/09/19 05:07:46;;;;;;;1.10;1.07;;;18.30;99.90;;;18.74;76.24;100372.50;4952455;28;20670;-63
2023/09/19 05:10:14;;;;;;;1.10;1.10;;;18.40;99.90;;;18.74;75.74;100379.66;4965688;28;21220;-65
2023/09/19 05:12:43;;;;;;;2.00;1.30;;;18.40;99.90;;;18.74;75.75;100377.00;4951746;28;20624;-65
2023/09/19 05:15:10;;;;;;;0.90;0.90;;;18.40;99.90;;;18.75;75.77;100381.28;4951464;29;20867;-65
2023/09/19 05:17:38;;;;;;;0.93;0.93;;;18.40;99.90;;;18.76;76.04;100377.66;4952574;29;21058;-65
2023/09/19 05:20:16;;;;;;;1.00;1.00;;;18.40;99.90;;;18.77;76.28;100382.75;4951479;29;20667;-65
2023/09/19 05:22:43;;;;;;;1.10;1.00;;;18.40;99.90;;;18.80;76.33;100385.09;4967106;28;20703;-65
2023/09/19 05:25:11;;;;;;;1.10;1.10;;;18.40;99.90;;;18.84;75.68;100380.28;4952090;28;20668;-64
2023/09/19 05:27:38;;;;;;;1.10;1.10;;;18.40;99.90;;;18.90;75.40;100379.59;4952258;28;20792;-65
2023/09/19 05:30:07;;;;;;;1.20;1.20;;;18.50;99.90;;;18.97;75.28;100383.22;4951451;29;20640;-65
2023/09/19 05:32:33;;;;;;;0.93;0.93;;;18.50;99.90;;;19.02;74.71;100388.78;4950624;29;20719;-65
2023/09/19 05:35:00;;;;;;;1.27;1.20;;;18.60;99.90;;;19.01;75.19;100382.72;4951070;28;20679;-66
2023/09/19 05:37:27;;;;;;;1.40;1.30;;;18.60;99.90;;;19.04;74.82;100385.00;4943942;29;20650;-65
2023/09/19 05:39:54;;;;;;;1.40;1.30;;;18.60;99.90;;;19.03;74.67;100383.34;4950909;28;21236;-65
2023/09/19 05:42:21;;;;;;;1.47;1.33;;;18.60;99.90;;;19.04;74.84;100386.81;4952685;28;20639;-66
2023/09/19 05:44:48;;;;;;;1.10;1.10;;;18.60;99.90;;;19.08;74.73;100382.84;4952112;28;21022;-65
2023/09/19 05:47:15;;;;;;;1.20;1.20;;;18.70;99.90;;;19.12;74.55;100387.59;4955312;29;20628;-66
2023/09/19 05:49:42;;;;;;;1.60;1.50;;;18.70;99.90;;;19.17;74.91;100387.91;4953599;29;20640;-65
2023/09/19 05:52:09;;;;;;;1.53;1.43;;;18.70;99.90;;;19.26;75.09;100394.00;4955117;29;20631;-65
2023/09/19 05:54:37;;;;;;;2.33;1.40;;;18.80;99.90;;;19.34;74.78;100394.81;4954935;28;21329;-66
2023/09/19 05:57:04;;;;;;;1.17;1.10;;;18.90;99.90;;;19.46;74.62;100397.94;4953918;28;20632;-65
2023/09/19 05:59:33;;;;;;;1.10;1.10;;;19.00;99.90;;;19.55;73.38;100396.88;4956020;29;20627;-65
2023/09/19 06:02:00;;;;;;;1.97;1.00;;;19.10;99.90;;;19.64;73.00;100402.94;4954910;29;20664;-65
2023/09/19 06:04:30;;;;;;;5.40;1.17;;;19.20;99.90;;;19.73;72.46;100409.84;4950463;29;21250;-65
2023/09/19 06:06:58;;;;;;;1.17;1.17;;;19.30;99.90;;;19.86;71.90;100415.41;4955242;29;20639;-66
2023/09/19 06:09:27;;;;;;;0.80;0.80;;;19.40;99.90;;;20.04;71.08;100418.56;4953915;28;20700;-66
2023/09/19 06:11:55;;;;;;;1.57;1.10;;;19.60;99.90;;;20.27;70.55;100418.63;4955056;28;20655;-66
2023/09/19 06:14:24;;;;;;;1.23;0.80;;;19.80;99.90;;;20.54;69.20;100431.31;4954575;29;20663;-65
2023/09/19 06:16:53;;;;;;;0.80;0.80;;;20.00;99.90;;;20.73;68.40;100433.47;4952098;28;20640;-66
2023/09/19 06:19:22;;;;;;;0.80;0.80;;;20.20;99.90;;;20.84;67.54;100441.81;4943855;28;21106;-66
2023/09/19 06:21:49;;;;;;;0.93;0.93;;;20.40;99.90;;;20.85;67.98;100442.59;4965611;28;20640;-65
2023/09/19 06:24:16;;;;;;;0.70;0.70;;;20.40;99.90;;;20.82;67.40;100441.16;4946757;28;20644;-65
2023/09/19 06:26:44;;;;;;;0.77;0.77;;;20.40;99.90;;;20.81;67.35;100443.97;4962395;28;20639;-65
2023/09/19 06:29:11;;;;;;;0.67;0.67;;;20.40;99.90;;;20.83;67.24;100439.31;4948994;28;20631;-65
2023/09/19 06:31:39;;;;;;;0.73;0.73;;;20.40;99.90;;;20.86;66.99;100444.28;4948605;28;20679;-66
2023/09/19 06:34:07;;;;;;;0.93;0.93;;;20.40;99.90;;;20.92;66.50;100450.66;4949043;28;20675;-65
2023/09/19 06:36:33;;;;;;;1.10;1.10;;;20.50;99.90;;;20.91;66.30;100439.25;4947672;28;22189;-65
2023/09/19 06:39:00;;;;;;;0.80;0.80;;;20.50;99.90;;;20.78;66.08;100450.47;4948306;28;20703;-65
2023/09/19 06:41:29;;;;;;;0.93;0.93;;;20.40;99.90;;;20.71;66.57;100440.78;4948664;29;21225;-66
2023/09/19 06:43:57;;;;;;;0.80;0.80;;;20.30;99.90;;;20.64;65.86;100437.19;4946117;28;20628;-65
2023/09/19 06:46:24;;;;;;;0.90;0.90;;;20.20;99.90;;;20.62;65.67;100439.19;4947516;29;20742;-64
2023/09/19 06:48:53;;;;;;;0.90;0.90;;;20.20;99.90;;;20.68;65.71;100443.75;4952286;28;20690;-63
2023/09/19 06:51:19;;;;;;;1.00;1.00;;;20.20;99.90;;;20.73;65.72;100452.00;4945728;29;20633;-66
2023/09/19 06:53:47;;;;;;;1.00;1.00;;;20.30;99.90;;;20.79;65.05;100457.44;4949404;28;20668;-65
2023/09/19 06:56:14;;;;;;;3.50;1.07;;;20.40;99.90;;;20.96;64.71;100460.75;4951216;28;20762;-66
2023/09/19 06:58:43;;;;;;;0.87;0.87;;;20.50;99.90;;;21.04;64.46;100465.97;4952560;29;21018;-65
2023/09/19 07:01:10;;;;;;;0.60;0.57;;;20.60;99.90;;;21.18;63.88;100467.84;4950719;29;21011;-64
2023/09/19 07:03:37;;;;;;;0.90;0.90;;;20.70;99.90;;;21.44;63.50;100470.88;4944582;29;20663;-65
2023/09/19 07:06:05;;;;;;;1.03;1.00;;;21.00;99.90;;;21.82;62.75;100476.03;4948855;29;20747;-66
2023/09/19 07:08:31;;;;;;;1.03;0.90;;;21.30;99.90;;;22.38;61.39;100481.38;4946904;29;20687;-65
2023/09/19 07:10:58;;;;;;;0.83;0.83;;;21.80;99.90;;;22.95;58.93;100478.63;4952154;28;21010;-62
2023/09/19 07:13:25;;;;;;;0.97;0.97;;;22.40;99.90;;;23.50;57.70;100480.44;4952131;29;20628;-65
2023/09/19 07:15:52;;;;;;;1.43;1.33;;;23.00;99.90;;;24.04;56.16;100483.16;4948469;29;20651;-66
2023/09/19 07:18:20;;;;;;;0.80;0.80;;;23.50;99.90;;;24.50;54.64;100480.56;4940823;28;20652;-64
2023/09/19 07:20:50;;;;;;;1.80;1.00;;;24.00;99.90;;;24.89;52.80;100483.28;4953427;29;20651;-65
2023/09/19 07:23:22;;;;;;;0.90;0.90;;;24.40;99.90;;;25.08;51.88;100487.75;4951593;28;20715;-65
2023/09/19 07:25:49;;;;;;;2.17;1.20;;;24.60;99.90;;;25.13;51.84;100489.81;4949587;29;20673;-65
2023/09/19 07:28:17;;;;;;;1.30;1.17;;;24.70;99.90;;;25.17;51.74;100494.50;4946232;29;20644;-67
2023/09/19 07:30:43;;;;;;;1.33;1.20;;;24.70;99.90;;;25.25;51.54;100491.63;4952577;29;20675;-65
2023/09/19 07:33:13;;;;;;;1.00;1.00;;;24.80;99.90;;;25.38;51.14;100510.28;4949268;29;20658;-66
2023/09/19 07:35:40;;;;;;;1.37;1.27;;;25.00;99.90;;;25.38;51.24;100504.13;4952470;29;21422;-66
2023/09/19 07:38:10;;;;;;;1.10;1.10;;;25.00;99.90;;;25.23;51.88;100516.91;4945451;29;20640;-64
2023/09/19 07:40:37;;;;;;;1.27;1.17;;;24.90;99.90;;;25.31;51.91;100525.53;4946322;29;20715;-63
2023/09/19 07:43:04;;;;;;;1.10;1.10;;;25.00;99.90;;;25.37;51.67;100514.00;4964053;28;20667;-63
2023/09/19 07:45:31;;;;;;;1.20;1.20;;;25.10;99.90;;;25.64;50.61;100525.44;4947800;29;20652;-65
2023/09/19 07:48:01;;;;;;;1.17;1.07;;;25.30;99.90;;;25.92;49.64;100522.47;4948540;28;20688;-66
2023/09/19 07:50:28;;;;;;;1.40;1.30;;;25.60;99.60;;;26.01;49.57;100521.19;4952645;29;21289;-65
2023/09/19 07:52:56;;;;;;;1.63;1.53;;;25.70;99.20;;;25.88;48.12;100515.91;4952368;28;21224;-66
2023/09/19 07:55:25;;;;;;;1.33;1.13;;;25.70;97.90;;;25.99;48.27;100517.91;4952543;29;21237;-66
2023/09/19 07:57:53;;;;;;;1.20;1.10;;;25.80;97.90;;;26.00;48.77;100520.38;4951765;29;21213;-65
2023/09/19 08:00:20;;;;;;;1.00;1.00;;;25.80;98.10;;;26.26;47.89;100522.13;4952439;28;20628;-65
2023/09/19 08:02:51;;;;;;;2.90;1.37;;;26.00;97.50;;;26.38;47.20;100527.63;4948264;28;20648;-66
2023/09/19 08:05:27;;;;;;;1.23;1.10;;;26.20;96.60;;;26.72;46.43;100528.03;4952420;28;20651;-66
2023/09/19 08:07:56;;;;;;;1.73;1.67;;;26.50;96.00;;;26.95;45.54;100532.78;4950213;28;21027;-65
2023/09/19 08:10:27;;;;;;;1.67;1.57;;;26.80;95.00;;;26.90;45.00;100529.94;4949121;28;20647;-65
2023/09/19 08:12:57;;;;;;;1.07;0.97;;;26.80;94.30;;;26.65;44.57;100534.44;4950468;29;21492;-64
2023/09/19 08:15:24;;;;;;;1.93;1.83;;;26.60;93.60;;;26.14;45.20;100538.03;4947707;28;20762;-65
2023/09/19 08:17:51;;;;;;;1.70;1.70;;;26.10;93.60;;;25.49;46.62;100540.91;4948109;29;20632;-64
2023/09/19 08:20:19;;;;;;;1.27;1.17;;;25.50;94.40;;;24.82;48.14;100546.50;4951312;29;20655;-65
2023/09/19 08:22:56;;;;;;;1.90;1.80;;;24.70;94.80;;;24.27;48.92;100557.44;4950674;29;20631;-65
2023/09/19 08:25:26;;;;;;;1.03;1.03;;;24.10;95.50;;;23.66;50.01;100546.69;4946986;28;21307;-65
2023/09/19 08:27:57;;;;;;;1.90;1.60;;;23.50;96.30;;;23.42;51.18;100557.00;4944734;29;21331;-65
2023/09/19 08:30:26;;;;;;;1.37;1.37;;;23.10;96.90;;;23.30;51.79;100555.84;4949408;28;20647;-64
2023/09/19 08:33:04;;;;;;;3.43;1.77;;;23.00;97.60;;;23.19;51.89;100559.06;4950736;28;20632;-65
2023/09/19 08:35:31;;;;;;;1.77;1.63;;;22.80;97.80;;;23.12;52.74;100553.66;4936628;29;20680;-66
2023/09/19 08:38:00;;;;;;;1.40;1.10;;;22.80;98.30;;;23.01;52.90;100554.19;4959271;28;20636;-63
2023/09/19 08:40:28;;;;;;;1.07;1.07;;;22.60;98.40;;;22.91;52.93;100553.69;4947351;28;20648;-65
2023/09/19 08:42:57;;;;;;;1.30;1.30;;;22.50;98.60;;;22.87;52.87;100558.56;4949652;28;20627;-66
2023/09/19 08:45:28;;;;;;;1.30;1.30;;;22.50;98.70;;;22.75;53.01;100557.44;4945726;28;20670;-66
2023/09/19 08:48:23;;;;;;;1.00;1.00;;;22.40;98.60;;;22.66;52.96;100552.47;4958367;28;20644;-68
2023/09/19 08:51:06;;;;;;;2.87;1.50;;;22.30;98.60;;;23.01;51.98;100564.84;4955859;28;20655;-67
2023/09/19 08:53:48;;;;;;;1.20;1.20;;;22.50;98.30;;;23.43;50.90;100577.25;4947172;29;20715;-66
2023/09/19 08:56:18;;;;;;;3.07;1.60;;;23.00;97.80;;;24.09;49.92;100563.31;4938788;29;20696;-68
2023/09/19 08:58:53;;;;;;;2.40;1.30;;;23.60;97.10;;;25.33;47.86;100571.53;4946192;28;20625;-66
2023/09/19 09:01:27;;;;;;;2.10;0.97;;;24.70;96.10;;;26.56;44.70;100582.03;4965148;28;20649;-67
2023/09/19 09:03:56;;;;;;;1.37;1.33;;;26.00;94.40;;;27.30;42.40;100571.41;4963422;28;20628;-67
2023/09/19 09:06:25;;;;;;;1.37;1.27;;;26.90;92.60;;;27.77;40.71;100577.16;4950419;28;20667;-66
2023/09/19 09:08:52;;;;;;;0.97;0.97;;;27.30;90.70;;;27.85;40.35;100575.00;4942994;28;20727;-66
2023/09/19 09:11:20;;;;;;;1.53;1.43;;;27.50;89.40;;;28.09;39.69;100568.75;4950888;28;20671;-66
2023/09/19 09:13:48;;;;;;;2.07;1.50;;;27.70;87.30;;;28.09;39.39;100576.00;4939768;28;21248;-68
2023/09/19 09:16:18;;;;;;;1.37;1.10;;;27.80;86.00;;;27.93;39.42;100568.50;4954913;28;21044;-64
2023/09/19 09:18:52;;;;;;;2.30;1.27;;;27.70;85.00;;;27.38;39.72;100579.22;4949229;28;21228;-64
2023/09/19 09:21:25;;;;;;;1.47;1.20;;;27.10;84.70;;;27.27;40.52;100579.91;4949326;28;20715;-64
2023/09/19 09:23:53;;;;;;;1.10;0.90;;;27.00;85.10;;;27.00;41.07;100578.50;4944862;28;20636;-68
2023/09/19 09:26:47;;;;;;;0.93;0.93;;;26.70;85.30;;;26.43;41.50;100581.31;4942057;29;20649;-65
2023/09/19 09:29:14;;;;;;;1.00;0.90;;;26.20;85.50;;;25.84;42.60;100582.34;4941973;29;21235;-64
2023/09/19 09:31:48;;;;;;;0.87;0.87;;;25.60;86.40;;;25.30;42.65;100577.28;4944428;28;21294;-65
2023/09/19 09:34:16;;;;;;;4.27;1.10;;;25.00;86.60;;;24.94;43.54;100579.53;4942293;29;21090;-67
2023/09/19 09:36:49;;;;;;;1.07;0.80;;;24.70;87.20;;;24.50;44.68;100580.06;4951121;28;20628;-64
2023/09/19 09:39:32;;;;;;;1.10;1.07;;;24.20;89.00;;;24.18;45.78;100578.13;4946808;28;20732;-64
2023/09/19 09:41:59;;;;;;;5.23;1.50;;;23.90;90.20;;;24.03;46.56;100576.56;4942860;29;21264;-65
2023/09/19 09:44:31;;;;;;;1.20;1.10;;;23.70;90.60;;;23.97;46.35;100583.53;4948354;28;20640;-68
2023/09/19 09:47:27;;;;;;;1.20;0.97;;;23.60;90.70;;;24.08;46.07;100579.50;4950921;28;20667;-65
2023/09/19 09:49:54;;;;;;;0.63;0.60;;;23.60;90.90;;;24.15;46.22;100577.69;4946152;29;20679;-65
2023/09/19 09:52:24;;;;;;;3.13;1.07;;;23.70;90.90;;;24.22;46.14;100570.53;4957952;28;21060;-66
2023/09/19 09:55:05;;;;;;;1.10;1.10;;;23.80;91.30;;;24.16;46.82;100574.81;4943612;29;21353;-65
2023/09/19 09:57:33;;;;;;;1.10;1.10;;;23.80;91.50;;;24.20;46.82;100570.75;4945211;28;20641;-66
2023/09/19 10:00:16;;;;;;;0.90;0.90;;;23.70;91.40;;;24.28;46.58;100561.72;4949818;28;20628;-65
2023/09/19 10:02:46;;;;;;;0.80;0.80;;;23.80;91.50;;;24.33;46.50;100556.63;4950631;28;20716;-63
2023/09/19 10:05:28;;;;;;;0.83;0.83;;;23.90;91.40;;;24.34;46.81;100556.41;4950193;29;20663;-63
2023/09/19 10:08:01;;;;;;;1.53;1.07;;;23.90;91.50;;;24.44;47.27;100553.38;4951104;29;20639;-67
2023/09/19 10:11:11;;;;;;;1.50;1.37;;;24.00;91.70;;;24.54;46.45;100546.63;4964859;28;20730;-66
2023/09/19 10:13:29;;;;;;;1.03;1.03;;;24.10;91.30;;;24.74;46.44;100551.16;4941574;29;21078;-65
2023/09/19 10:15:58;;;;;;;1.10;1.07;;;24.30;91.10;;;24.97;45.39;100551.63;4965003;28;20682;-67
2023/09/19 10:18:29;;;;;;;0.70;0.70;;;24.60;90.40;;;25.28;44.29;100543.78;4945296;29;20712;-64
2023/09/19 10:20:57;;;;;;;1.67;1.30;;;25.00;89.80;;;25.74;44.06;100539.22;4954235;28;20640;-65
2023/09/19 10:23:29;;;;;;;1.03;1.03;;;25.50;89.00;;;26.20;42.44;100548.91;4948904;28;20651;-65
2023/09/19 10:25:59;;;;;;;1.20;1.00;;;25.90;87.50;;;26.28;42.81;100549.47;4950580;29;20648;-65